Time;durP1;ratioP1;P1;durP2;ratioP2;P2;SDS_P1;SDS_P2;PMS_P1;PMS_P2;Temp;Humidity;BMP_temperature;BMP_pressure;BME280_temperature;BME280_humidity;BME280_pressure;Samples;Min_cycle;Max_cycle;Signal;HPM_P1;HPM_P2
2023/07/29 00:01:08;;;;;;;5.95;2.90;;;18.60;99.90;;;;;;5069970;28;20055;-70
2023/07/29 00:03:34;;;;;;;7.22;3.70;;;18.60;99.90;;;;;;5071470;28;20039;-70
2023/07/29 00:06:00;;;;;;;6.38;3.50;;;18.60;99.90;;;;;;5074708;28;20120;-70
2023/07/29 00:08:25;;;;;;;7.93;3.90;;;18.60;99.90;;;;;;5042223;28;20078;-70
2023/07/29 00:10:51;;;;;;;6.40;3.22;;;18.60;99.90;;;;;;5039994;28;20044;-70
2023/07/29 00:13:17;;;;;;;8.98;3.78;;;18.60;99.90;;;;;;5041718;28;20130;-70
2023/07/29 00:15:42;;;;;;;7.88;3.58;;;18.50;99.90;;;;;;5038097;28;20037;-70
2023/07/29 00:18:08;;;;;;;8.35;3.17;;;18.50;99.90;;;;;;5042393;28;20041;-70
2023/07/29 00:20:33;;;;;;;6.50;3.20;;;18.50;99.90;;;;;;5042513;28;20502;-70
2023/07/29 00:22:59;;;;;;;6.32;3.65;;;18.50;99.90;;;;;;5022290;28;20036;-71
2023/07/29 00:25:25;;;;;;;6.72;2.92;;;18.50;99.90;;;;;;5040211;28;20372;-70
2023/07/29 00:27:50;;;;;;;7.70;3.38;;;18.40;99.90;;;;;;5041405;28;20057;-70
2023/07/29 00:30:16;;;;;;;6.75;3.53;;;18.40;99.90;;;;;;5070549;28;20149;-70
2023/07/29 00:32:42;;;;;;;8.15;3.55;;;18.40;99.90;;;;;;5039331;28;20266;-70
2023/07/29 00:35:08;;;;;;;8.27;3.63;;;18.40;99.90;;;;;;5043365;28;20053;-70
2023/07/29 00:37:33;;;;;;;7.72;2.88;;;18.40;99.90;;;;;;5041467;28;20044;-70
2023/07/29 00:39:59;;;;;;;8.10;3.28;;;18.30;99.90;;;;;;5042779;28;20493;-70
2023/07/29 00:42:25;;;;;;;8.48;3.33;;;18.30;99.90;;;;;;5045047;28;20443;-70
2023/07/29 00:44:50;;;;;;;8.40;3.08;;;18.30;99.90;;;;;;5047042;28;20052;-70
2023/07/29 00:47:16;;;;;;;6.20;3.20;;;18.30;99.90;;;;;;5045623;28;20097;-70
2023/07/29 00:49:45;;;;;;;8.98;4.05;;;18.30;99.90;;;;;;5044768;28;20032;-70
2023/07/29 00:52:12;;;;;;;8.65;3.80;;;18.30;99.90;;;;;;5045620;28;20041;-70
2023/07/29 00:54:39;;;;;;;6.15;3.30;;;18.30;99.90;;;;;;5071244;28;20045;-70
2023/07/29 00:57:07;;;;;;;5.43;3.03;;;18.30;99.90;;;;;;5038945;28;20094;-70
2023/07/29 00:59:34;;;;;;;5.47;2.88;;;18.30;99.90;;;;;;5038359;28;20025;-70
2023/07/29 01:02:00;;;;;;;7.07;3.25;;;18.20;99.90;;;;;;5041893;28;20112;-70
2023/07/29 01:04:26;;;;;;;6.95;3.10;;;18.20;99.90;;;;;;5039058;28;20124;-70
2023/07/29 01:07:21;;;;;;;7.78;3.33;;;18.20;99.90;;;;;;5040688;28;20123;-70
2023/07/29 01:10:04;;;;;;;5.97;3.05;;;18.20;99.90;;;;;;5037775;28;20032;-70
2023/07/29 01:12:45;;;;;;;6.97;3.10;;;18.20;99.90;;;;;;5057102;28;20144;-70
2023/07/29 01:15:33;;;;;;;7.18;2.97;;;18.10;99.90;;;;;;5040554;28;20044;-70
2023/07/29 01:18:08;;;;;;;7.80;2.80;;;18.10;99.90;;;;;;5038402;28;20057;-70
2023/07/29 01:20:39;;;;;;;7.38;3.30;;;18.10;99.90;;;;;;5041001;28;20076;-70
2023/07/29 01:23:04;;;;;;;8.07;3.70;;;18.10;99.90;;;;;;5021231;28;20486;-70
2023/07/29 01:25:30;;;;;;;8.48;3.40;;;18.10;99.90;;;;;;5071295;28;20041;-70
2023/07/29 01:27:56;;;;;;;5.93;2.53;;;18.00;99.90;;;;;;5035253;28;20500;-70
2023/07/29 01:30:28;;;;;;;7.30;3.50;;;18.00;99.90;;;;;;5040698;28;20289;-70
2023/07/29 01:33:13;;;;;;;9.52;3.80;;;18.00;99.90;;;;;;5039976;28;20040;-70
2023/07/29 01:35:52;;;;;;;7.38;3.55;;;17.90;99.90;;;;;;5040885;28;20647;-70
2023/07/29 01:38:31;;;;;;;8.77;3.97;;;17.90;99.90;;;;;;5037271;28;20337;-70
2023/07/29 01:40:58;;;;;;;5.97;2.92;;;17.90;99.90;;;;;;5042022;28;20542;-70
2023/07/29 01:43:25;;;;;;;7.90;3.20;;;17.90;99.90;;;;;;5044212;28;20151;-71
2023/07/29 01:45:51;;;;;;;5.93;2.80;;;17.80;99.90;;;;;;5041651;28;20579;-70
2023/07/29 01:48:17;;;;;;;7.13;3.28;;;17.80;99.90;;;;;;5041032;28;20037;-70
2023/07/29 01:50:43;;;;;;;10.63;2.83;;;17.80;99.90;;;;;;5039660;28;20414;-71
2023/07/29 01:53:08;;;;;;;8.07;2.97;;;17.70;99.90;;;;;;5037899;28;20041;-70
2023/07/29 01:55:34;;;;;;;7.18;3.42;;;17.70;99.90;;;;;;5069699;28;20037;-70
2023/07/29 01:57:59;;;;;;;7.57;3.05;;;17.70;99.90;;;;;;5033792;28;20083;-70
2023/07/29 02:00:25;;;;;;;6.78;3.05;;;17.60;99.90;;;;;;5039836;28;20482;-70
2023/07/29 02:02:51;;;;;;;9.90;3.20;;;17.60;99.90;;;;;;5039747;28;20033;-70
2023/07/29 02:05:16;;;;;;;6.40;2.60;;;17.60;99.90;;;;;;5036565;28;20086;-70
2023/07/29 02:07:42;;;;;;;6.68;3.08;;;17.60;99.90;;;;;;5038244;28;22028;-70
2023/07/29 02:10:08;;;;;;;6.10;2.92;;;17.60;99.90;;;;;;5038742;28;20049;-70
2023/07/29 02:12:34;;;;;;;7.53;2.85;;;17.50;99.90;;;;;;5070474;28;20069;-70
2023/07/29 02:14:59;;;;;;;9.18;3.33;;;17.50;99.90;;;;;;5039987;28;20079;-70
2023/07/29 02:17:26;;;;;;;7.07;2.63;;;17.50;99.90;;;;;;5038957;28;20073;-70
2023/07/29 02:19:51;;;;;;;8.15;3.13;;;17.50;99.90;;;;;;5038654;28;20033;-70
2023/07/29 02:22:18;;;;;;;7.97;2.92;;;17.50;99.90;;;;;;5040151;28;20095;-70
2023/07/29 02:24:44;;;;;;;9.10;3.08;;;17.50;99.90;;;;;;5036988;28;20040;-70
2023/07/29 02:27:10;;;;;;;5.57;2.70;;;17.50;99.90;;;;;;5037025;28;20057;-70
2023/07/29 02:29:36;;;;;;;5.07;2.33;;;17.50;99.90;;;;;;5036793;28;20054;-70
2023/07/29 02:32:03;;;;;;;6.93;3.47;;;17.50;99.90;;;;;;5051981;28;20048;-70
2023/07/29 02:34:28;;;;;;;6.93;2.55;;;17.50;99.90;;;;;;5040562;28;20067;-70
2023/07/29 02:36:54;;;;;;;4.35;2.20;;;17.50;99.90;;;;;;5042244;28;20120;-70
2023/07/29 02:39:20;;;;;;;6.72;2.90;;;17.50;99.90;;;;;;5053037;28;20104;-70
2023/07/29 02:41:45;;;;;;;5.30;2.50;;;17.50;99.90;;;;;;5074508;28;20120;-70
2023/07/29 02:44:11;;;;;;;6.28;2.60;;;17.50;99.90;;;;;;5043979;28;20047;-70
2023/07/29 02:46:36;;;;;;;5.78;2.38;;;17.50;99.90;;;;;;5045388;28;20098;-70
2023/07/29 02:49:03;;;;;;;5.13;2.50;;;17.50;99.90;;;;;;5044200;28;20398;-70
2023/07/29 02:51:29;;;;;;;6.47;2.45;;;17.50;99.90;;;;;;5043777;28;20521;-70
2023/07/29 02:53:55;;;;;;;7.40;2.72;;;17.50;99.90;;;;;;5043326;28;20490;-70
2023/07/29 02:56:21;;;;;;;5.15;2.50;;;17.50;99.90;;;;;;5039864;28;20049;-70
2023/07/29 02:58:46;;;;;;;4.90;2.53;;;17.50;99.90;;;;;;5040203;28;20116;-70
2023/07/29 03:01:12;;;;;;;7.45;2.45;;;17.50;99.90;;;;;;5039731;28;20140;-70
2023/07/29 03:03:37;;;;;;;5.55;2.60;;;17.50;99.90;;;;;;5042101;28;20041;-70
2023/07/29 03:06:08;;;;;;;6.20;2.92;;;17.50;99.90;;;;;;5019710;28;20034;-70
2023/07/29 03:08:34;;;;;;;5.53;2.50;;;17.50;99.90;;;;;;5072549;28;20025;-71
2023/07/29 03:11:15;;;;;;;6.07;2.25;;;17.50;99.90;;;;;;5073203;28;20545;-70
2023/07/29 03:13:41;;;;;;;4.93;2.20;;;17.50;99.90;;;;;;5041593;28;20055;-70
2023/07/29 03:16:12;;;;;;;7.30;2.13;;;17.50;99.90;;;;;;5041845;28;20057;-70
2023/07/29 03:18:38;;;;;;;4.18;2.08;;;17.50;99.90;;;;;;5040922;28;20616;-70
2023/07/29 03:21:04;;;;;;;5.05;2.13;;;17.50;99.90;;;;;;5039541;28;20223;-70
2023/07/29 03:23:30;;;;;;;6.43;1.90;;;17.40;99.90;;;;;;5042003;28;20029;-70
2023/07/29 03:25:57;;;;;;;4.45;2.22;;;17.40;99.90;;;;;;5039180;28;20033;-70
2023/07/29 03:28:28;;;;;;;4.78;2.45;;;17.40;99.90;;;;;;5038077;28;20094;-70
2023/07/29 03:30:58;;;;;;;4.50;2.00;;;17.40;99.90;;;;;;5040011;28;20048;-70
2023/07/29 03:33:25;;;;;;;4.93;2.42;;;17.40;99.90;;;;;;5040181;28;20036;-70
2023/07/29 03:35:51;;;;;;;4.97;1.83;;;17.30;99.90;;;;;;5038818;28;20045;-70
2023/07/29 03:38:16;;;;;;;5.22;2.25;;;17.40;99.90;;;;;;5036489;28;20091;-70
2023/07/29 03:40:43;;;;;;;5.30;1.80;;;17.30;99.90;;;;;;5037085;28;20033;-70
2023/07/29 03:43:08;;;;;;;7.20;2.35;;;17.30;99.90;;;;;;5039683;28;20376;-70
2023/07/29 03:45:35;;;;;;;4.18;2.17;;;17.30;99.90;;;;;;5073871;28;20095;-70
2023/07/29 03:48:01;;;;;;;3.92;1.83;;;17.30;99.90;;;;;;5039609;28;20465;-70
2023/07/29 03:50:28;;;;;;;5.43;2.70;;;17.30;99.90;;;;;;5038184;28;20450;-70
2023/07/29 03:52:54;;;;;;;4.32;1.88;;;17.20;99.90;;;;;;5036109;28;20033;-70
2023/07/29 03:55:20;;;;;;;5.65;2.13;;;17.20;99.90;;;;;;5037637;28;20418;-70
2023/07/29 03:57:46;;;;;;;4.95;2.03;;;17.20;99.90;;;;;;5037854;28;20045;-70
2023/07/29 04:00:11;;;;;;;7.18;2.22;;;17.20;99.90;;;;;;5070022;28;20053;-70
2023/07/29 04:02:37;;;;;;;5.47;1.77;;;17.20;99.90;;;;;;5021939;28;20041;-70
2023/07/29 04:05:04;;;;;;;5.82;2.00;;;17.20;99.90;;;;;;5041072;28;20379;-71
2023/07/29 04:07:30;;;;;;;4.65;2.00;;;17.20;99.90;;;;;;5036979;28;20084;-70
2023/07/29 04:09:56;;;;;;;3.85;2.17;;;17.20;99.90;;;;;;5071131;28;20153;-70
2023/07/29 04:12:22;;;;;;;3.60;1.85;;;17.20;99.90;;;;;;5037108;28;20490;-70
2023/07/29 04:14:48;;;;;;;3.97;1.65;;;17.20;99.90;;;;;;5039819;28;20094;-70
2023/07/29 04:17:14;;;;;;;4.25;1.88;;;17.20;99.90;;;;;;5023317;28;20063;-70
2023/07/29 04:19:42;;;;;;;5.35;2.10;;;17.20;99.90;;;;;;5037448;28;20033;-70
2023/07/29 04:22:07;;;;;;;3.78;1.70;;;17.20;99.90;;;;;;5036242;28;20148;-70
2023/07/29 04:24:33;;;;;;;3.35;1.88;;;17.20;99.90;;;;;;5038196;28;20459;-70
2023/07/29 04:26:58;;;;;;;4.10;1.60;;;17.20;99.90;;;;;;5027543;28;1230454;-70
2023/07/29 04:29:24;;;;;;;4.25;1.63;;;17.20;99.90;;;;;;5040333;28;20095;-70
2023/07/29 04:31:50;;;;;;;3.38;1.67;;;17.20;99.90;;;;;;5038813;28;20037;-70
2023/07/29 04:34:16;;;;;;;4.15;1.70;;;17.20;99.90;;;;;;5040989;28;20459;-70
2023/07/29 04:36:42;;;;;;;5.60;1.98;;;17.20;99.90;;;;;;5037861;28;20052;-70
2023/07/29 04:39:07;;;;;;;4.28;1.75;;;17.10;99.90;;;;;;5069354;28;20493;-70
2023/07/29 04:41:33;;;;;;;3.20;1.70;;;17.20;99.90;;;;;;5053359;28;20287;-70
2023/07/29 04:43:59;;;;;;;4.45;1.42;;;17.20;99.90;;;;;;5039907;28;20449;-70
2023/07/29 04:46:24;;;;;;;3.42;1.48;;;17.20;99.90;;;;;;5040073;28;20029;-70
2023/07/29 04:48:50;;;;;;;6.50;1.83;;;17.20;99.90;;;;;;5039062;28;20383;-70
2023/07/29 04:51:15;;;;;;;4.32;1.27;;;17.20;99.90;;;;;;5037747;28;20075;-70
2023/07/29 04:53:41;;;;;;;3.65;1.27;;;17.20;99.90;;;;;;5037673;28;20036;-70
2023/07/29 04:56:06;;;;;;;4.03;1.33;;;17.20;99.90;;;;;;5039502;28;20040;-70
2023/07/29 04:58:35;;;;;;;3.92;1.77;;;17.20;99.90;;;;;;5038046;28;20218;-70
2023/07/29 05:01:01;;;;;;;2.67;1.33;;;17.20;99.90;;;;;;5001567;28;20384;-71
2023/07/29 05:03:27;;;;;;;6.05;2.05;;;17.20;99.90;;;;;;5036797;28;20132;-70
2023/07/29 05:05:57;;;;;;;2.78;1.10;;;17.20;99.90;;;;;;5038982;28;20249;-71
2023/07/29 05:08:22;;;;;;;4.57;1.45;;;17.20;99.90;;;;;;5033862;28;20041;-70
2023/07/29 05:10:52;;;;;;;3.40;1.45;;;17.20;99.90;;;;;;5019071;28;20049;-70
2023/07/29 05:13:18;;;;;;;2.78;1.20;;;17.20;99.90;;;;;;5040334;28;20539;-70
2023/07/29 05:15:44;;;;;;;3.30;1.27;;;17.20;99.90;;;;;;5021476;28;20082;-70
2023/07/29 05:18:10;;;;;;;3.53;1.60;;;17.20;99.90;;;;;;5034838;28;20053;-70
2023/07/29 05:20:36;;;;;;;3.20;1.25;;;17.20;99.90;;;;;;5038927;28;20033;-70
2023/07/29 05:23:02;;;;;;;3.00;1.42;;;17.20;99.90;;;;;;5036862;28;20456;-70
2023/07/29 05:25:27;;;;;;;3.13;1.33;;;17.20;99.90;;;;;;5052323;28;20562;-71
2023/07/29 05:27:53;;;;;;;4.65;1.38;;;17.20;99.90;;;;;;5038041;28;20507;-70
2023/07/29 05:30:18;;;;;;;3.95;1.25;;;17.20;99.90;;;;;;5040429;28;20049;-71
2023/07/29 05:32:44;;;;;;;3.35;1.17;;;17.20;99.90;;;;;;5036082;28;20758;-70
2023/07/29 05:35:10;;;;;;;2.22;1.17;;;17.20;99.90;;;;;;5041796;28;20048;-70
2023/07/29 05:37:39;;;;;;;3.05;1.20;;;17.20;99.90;;;;;;5036667;28;20462;-71
2023/07/29 05:40:06;;;;;;;3.35;1.20;;;17.20;99.90;;;;;;5041318;28;20044;-71
2023/07/29 05:42:32;;;;;;;2.60;1.10;;;17.30;99.90;;;;;;5040890;28;20507;-71
2023/07/29 05:44:58;;;;;;;3.97;1.20;;;17.30;99.90;;;;;;5043282;28;20033;-70
2023/07/29 05:47:23;;;;;;;4.95;1.52;;;17.30;99.90;;;;;;5041134;28;20037;-71
2023/07/29 05:49:49;;;;;;;2.08;0.93;;;17.30;99.90;;;;;;5041144;28;20037;-70
2023/07/29 05:52:15;;;;;;;2.63;1.13;;;17.30;99.90;;;;;;5042572;28;20044;-70
2023/07/29 05:54:42;;;;;;;2.83;1.20;;;17.30;99.90;;;;;;5068459;28;20059;-70
2023/07/29 05:57:09;;;;;;;4.30;1.25;;;17.30;99.90;;;;;;5020461;28;20044;-70
2023/07/29 05:59:34;;;;;;;3.58;1.20;;;17.30;99.90;;;;;;5038269;28;20502;-70
2023/07/29 06:02:00;;;;;;;4.00;1.38;;;17.30;99.90;;;;;;5035656;28;20126;-70
2023/07/29 06:04:25;;;;;;;3.50;1.00;;;17.30;99.90;;;;;;5036525;28;20033;-71
2023/07/29 06:06:51;;;;;;;2.47;1.30;;;17.40;99.90;;;;;;5038730;28;20471;-70
2023/07/29 06:09:16;;;;;;;2.72;1.10;;;17.30;99.90;;;;;;5038816;28;20032;-70
2023/07/29 06:11:42;;;;;;;4.88;1.10;;;17.30;99.90;;;;;;5036953;28;20224;-70
2023/07/29 06:14:08;;;;;;;3.17;1.15;;;17.40;99.90;;;;;;5038344;28;20534;-70
2023/07/29 06:16:33;;;;;;;3.35;1.27;;;17.40;99.90;;;;;;5037285;28;20075;-71
2023/07/29 06:18:59;;;;;;;5.32;1.45;;;17.40;99.90;;;;;;5038044;28;20057;-71
2023/07/29 06:21:24;;;;;;;3.03;1.23;;;17.40;99.90;;;;;;5042811;28;20036;-70
2023/07/29 06:23:50;;;;;;;3.80;1.20;;;17.40;99.90;;;;;;5037414;28;20111;-70
2023/07/29 06:26:15;;;;;;;4.55;1.58;;;17.50;99.90;;;;;;5035964;28;20060;-70
2023/07/29 06:28:41;;;;;;;4.47;1.90;;;17.40;99.90;;;;;;5037702;28;20044;-70
2023/07/29 06:31:06;;;;;;;6.65;1.77;;;17.50;99.90;;;;;;5035247;28;20037;-70
2023/07/29 06:33:32;;;;;;;3.33;1.52;;;17.50;99.90;;;;;;5033950;28;20052;-70
2023/07/29 06:35:57;;;;;;;8.68;1.35;;;17.70;99.90;;;;;;5038762;28;20120;-70
2023/07/29 06:38:23;;;;;;;5.63;1.90;;;17.80;99.90;;;;;;5038018;28;20246;-70
2023/07/29 06:40:49;;;;;;;4.88;1.77;;;18.10;99.90;;;;;;5036156;28;20394;-70
2023/07/29 06:43:14;;;;;;;4.57;1.73;;;18.10;99.90;;;;;;5036241;28;20041;-70
2023/07/29 06:45:40;;;;;;;3.20;1.40;;;18.10;99.90;;;;;;5067650;28;20283;-71
2023/07/29 06:48:05;;;;;;;4.75;1.80;;;18.10;99.90;;;;;;5036800;28;20039;-71
2023/07/29 06:50:31;;;;;;;3.28;1.30;;;18.10;99.90;;;;;;5033408;28;20052;-70
2023/07/29 06:52:56;;;;;;;4.63;1.80;;;18.10;99.90;;;;;;5033796;28;20029;-71
2023/07/29 06:55:22;;;;;;;6.00;2.25;;;18.10;99.90;;;;;;5064023;28;20040;-71
2023/07/29 06:57:48;;;;;;;2.95;1.50;;;18.10;99.90;;;;;;5040121;28;20534;-71
2023/07/29 07:00:14;;;;;;;5.78;2.17;;;18.10;99.90;;;;;;5036267;28;20064;-71
2023/07/29 07:02:39;;;;;;;4.43;1.90;;;18.10;99.90;;;;;;5034986;28;20041;-71
2023/07/29 07:05:05;;;;;;;6.82;2.05;;;18.20;99.90;;;;;;5038817;28;20479;-71
2023/07/29 07:07:31;;;;;;;5.10;2.28;;;18.30;99.90;;;;;;5049310;28;20052;-71
2023/07/29 07:09:56;;;;;;;4.20;2.00;;;18.40;99.90;;;;;;5038047;28;20056;-70
2023/07/29 07:12:22;;;;;;;4.93;2.47;;;18.30;99.90;;;;;;5036672;28;21565;-71
2023/07/29 07:14:48;;;;;;;5.40;2.17;;;18.40;99.90;;;;;;5022998;28;20390;-71
2023/07/29 07:17:13;;;;;;;4.80;2.10;;;18.40;99.90;;;;;;5035387;28;20037;-71
2023/07/29 07:19:39;;;;;;;4.30;2.40;;;18.40;99.90;;;;;;5033628;28;20033;-71
2023/07/29 07:22:05;;;;;;;5.78;2.38;;;18.40;99.90;;;;;;5004817;28;20029;-71
2023/07/29 07:24:31;;;;;;;3.95;2.00;;;18.40;99.90;;;;;;5033642;28;20032;-71
2023/07/29 07:26:56;;;;;;;4.72;2.30;;;18.40;99.90;;;;;;5050676;28;20511;-71
2023/07/29 07:29:22;;;;;;;5.55;2.17;;;18.40;99.90;;;;;;5038914;28;20084;-71
2023/07/29 07:31:53;;;;;;;4.53;2.05;;;18.40;99.90;;;;;;5041712;28;20498;-71
2023/07/29 07:34:20;;;;;;;5.95;2.75;;;18.40;99.90;;;;;;5020364;28;21480;-71
2023/07/29 07:36:45;;;;;;;7.15;2.72;;;18.40;99.90;;;;;;5072790;28;20040;-70
2023/07/29 07:39:11;;;;;;;6.00;2.38;;;18.40;99.90;;;;;;5020075;28;20036;-70
2023/07/29 07:41:36;;;;;;;4.95;2.63;;;18.50;99.90;;;;;;5036451;28;20025;-70
2023/07/29 07:44:02;;;;;;;5.80;2.47;;;18.50;99.90;;;;;;5040227;28;21181;-70
2023/07/29 07:46:28;;;;;;;5.20;2.30;;;18.50;99.90;;;;;;5071765;28;21089;-71
2023/07/29 07:48:54;;;;;;;7.28;3.05;;;18.60;99.90;;;;;;5038431;28;20037;-70
2023/07/29 07:51:20;;;;;;;4.22;2.20;;;18.60;99.90;;;;;;5038454;28;20102;-71
2023/07/29 07:53:45;;;;;;;7.50;2.60;;;18.70;99.90;;;;;;5037769;28;20025;-71
2023/07/29 07:56:11;;;;;;;4.97;2.95;;;18.80;99.90;;;;;;5035944;28;20060;-71
2023/07/29 07:58:38;;;;;;;6.43;3.25;;;18.90;99.90;;;;;;5036091;28;20033;-71
2023/07/29 08:01:07;;;;;;;7.50;3.17;;;19.00;99.90;;;;;;5056631;28;20037;-71
2023/07/29 08:03:34;;;;;;;3.78;2.30;;;19.10;99.90;;;;;;5035325;28;20042;-71
2023/07/29 08:05:59;;;;;;;4.45;3.10;;;19.10;99.90;;;;;;5071957;28;20029;-71
2023/07/29 08:08:26;;;;;;;6.93;2.75;;;19.10;99.90;;;;;;5034471;28;20222;-71
2023/07/29 08:10:56;;;;;;;4.43;2.35;;;19.10;99.90;;;;;;5071441;28;20036;-71
2023/07/29 08:13:23;;;;;;;4.85;2.55;;;19.10;99.90;;;;;;5069307;28;20065;-71
2023/07/29 08:15:51;;;;;;;6.47;2.85;;;19.20;99.90;;;;;;5014991;28;20044;-71
2023/07/29 08:18:18;;;;;;;4.50;2.53;;;19.20;99.90;;;;;;5036382;28;20418;-71
2023/07/29 08:20:57;;;;;;;7.25;3.00;;;19.10;99.90;;;;;;5024067;28;20037;-71
2023/07/29 08:23:24;;;;;;;4.70;2.30;;;19.10;99.90;;;;;;5036722;28;20048;-71
2023/07/29 08:25:56;;;;;;;7.28;2.63;;;19.20;99.90;;;;;;5040399;28;20064;-71
2023/07/29 08:28:22;;;;;;;4.72;2.58;;;19.10;99.90;;;;;;5023419;28;20053;-71
2023/07/29 08:30:48;;;;;;;6.20;2.50;;;19.10;99.90;;;;;;5039221;28;20064;-71
2023/07/29 08:33:15;;;;;;;4.68;2.13;;;19.20;99.90;;;;;;5034263;28;20155;-71
2023/07/29 08:35:40;;;;;;;5.45;2.53;;;19.30;99.90;;;;;;5019941;28;20033;-71
2023/07/29 08:38:06;;;;;;;5.15;2.50;;;19.40;99.90;;;;;;5039143;28;20091;-71
2023/07/29 08:40:34;;;;;;;5.05;2.67;;;19.40;99.90;;;;;;5037308;28;20063;-70
2023/07/29 08:43:05;;;;;;;5.07;2.30;;;19.50;99.90;;;;;;5072855;28;20047;-71
2023/07/29 08:45:34;;;;;;;4.85;2.83;;;19.50;99.90;;;;;;5040020;28;20124;-71
2023/07/29 08:48:06;;;;;;;5.22;2.25;;;19.50;99.90;;;;;;5037632;28;20123;-70
2023/07/29 08:50:35;;;;;;;3.47;1.98;;;19.60;99.90;;;;;;5038578;28;20041;-70
2023/07/29 08:53:03;;;;;;;4.55;2.40;;;19.70;99.90;;;;;;5070087;28;20055;-71
2023/07/29 08:55:30;;;;;;;4.50;2.78;;;19.70;99.90;;;;;;5038911;28;20576;-71
2023/07/29 08:57:57;;;;;;;6.03;2.30;;;19.80;99.90;;;;;;5040292;28;20514;-70
2023/07/29 09:00:23;;;;;;;3.40;2.13;;;19.70;99.90;;;;;;5040576;28;20037;-71
2023/07/29 09:02:49;;;;;;;3.45;1.65;;;19.70;99.90;;;;;;5033825;28;20122;-71
2023/07/29 09:05:14;;;;;;;5.10;2.13;;;19.70;99.90;;;;;;5039230;28;20124;-71
2023/07/29 09:07:41;;;;;;;5.80;2.13;;;19.70;99.90;;;;;;5068088;28;20037;-71
2023/07/29 09:10:10;;;;;;;3.67;1.90;;;19.70;99.90;;;;;;5038558;28;20044;-70
2023/07/29 09:12:36;;;;;;;5.07;1.77;;;19.70;99.90;;;;;;5038847;28;20033;-71
2023/07/29 09:15:01;;;;;;;3.58;1.77;;;19.70;99.90;;;;;;5039572;28;20594;-71
2023/07/29 09:17:32;;;;;;;5.60;2.15;;;19.80;99.90;;;;;;5035362;28;20740;-70
2023/07/29 09:19:58;;;;;;;3.40;1.80;;;19.80;99.90;;;;;;5036790;28;20523;-71
2023/07/29 09:22:25;;;;;;;4.22;2.17;;;19.90;99.90;;;;;;5035008;28;20041;-71
2023/07/29 09:24:51;;;;;;;3.75;1.60;;;19.90;99.90;;;;;;5035027;28;20033;-71
2023/07/29 09:27:25;;;;;;;4.57;2.05;;;20.00;99.90;;;;;;5052383;28;20041;-70
2023/07/29 09:29:51;;;;;;;5.47;2.10;;;20.10;99.90;;;;;;5036574;28;20055;-70
2023/07/29 09:32:24;;;;;;;4.20;1.90;;;20.20;99.90;;;;;;5036111;28;20119;-70
2023/07/29 09:34:50;;;;;;;3.38;1.52;;;20.20;99.90;;;;;;5035468;28;20198;-71
2023/07/29 09:37:23;;;;;;;3.83;1.85;;;20.30;99.90;;;;;;5036320;28;20828;-70
2023/07/29 09:39:49;;;;;;;2.65;1.40;;;20.40;99.90;;;;;;5069283;28;20472;-70
2023/07/29 09:42:19;;;;;;;3.58;1.98;;;20.30;99.90;;;;;;5037937;28;20034;-70
2023/07/29 09:44:45;;;;;;;4.47;2.17;;;20.30;99.90;;;;;;5055849;28;20474;-70
2023/07/29 09:47:20;;;;;;;2.83;1.70;;;20.30;99.90;;;;;;5066286;28;20045;-70
2023/07/29 09:49:46;;;;;;;3.88;1.80;;;20.40;99.90;;;;;;5039497;28;20055;-70
2023/07/29 09:52:11;;;;;;;3.75;1.90;;;20.40;99.90;;;;;;5038095;28;20037;-70
2023/07/29 09:54:37;;;;;;;3.45;1.90;;;20.40;99.90;;;;;;5032696;28;20483;-70
2023/07/29 09:57:03;;;;;;;2.60;1.50;;;20.50;99.90;;;;;;5041994;28;20041;-70
2023/07/29 09:59:34;;;;;;;2.53;1.58;;;20.60;99.90;;;;;;5041228;28;20491;-70
2023/07/29 10:02:00;;;;;;;1.88;1.20;;;20.60;99.90;;;;;;5022003;28;20064;-70
2023/07/29 10:04:26;;;;;;;2.38;1.58;;;20.70;99.90;;;;;;5036220;28;20033;-70
2023/07/29 10:06:52;;;;;;;3.72;1.60;;;20.70;99.90;;;;;;5037828;28;20044;-70
2023/07/29 10:09:20;;;;;;;3.33;1.38;;;20.70;99.90;;;;;;5035475;28;20498;-74
2023/07/29 10:11:46;;;;;;;3.40;1.50;;;20.70;99.90;;;;;;5034219;28;20122;-70
2023/07/29 10:14:12;;;;;;;2.25;1.10;;;20.70;99.90;;;;;;5039258;28;20461;-70
2023/07/29 10:16:39;;;;;;;4.82;1.00;;;20.60;99.90;;;;;;5035588;28;20045;-71
2023/07/29 10:19:07;;;;;;;2.75;1.20;;;20.60;99.90;;;;;;5033931;28;20468;-70
2023/07/29 10:21:33;;;;;;;4.25;1.20;;;20.60;99.90;;;;;;5050607;28;20041;-70
2023/07/29 10:24:02;;;;;;;2.10;1.20;;;20.70;99.90;;;;;;5067885;28;20124;-70
2023/07/29 10:26:31;;;;;;;3.88;1.10;;;20.70;99.90;;;;;;5070568;28;20052;-70
2023/07/29 10:29:04;;;;;;;2.97;0.90;;;20.70;99.90;;;;;;5018179;28;20120;-70
2023/07/29 10:31:31;;;;;;;2.65;1.15;;;20.70;99.90;;;;;;5035039;28;20072;-70
2023/07/29 10:33:57;;;;;;;1.80;1.08;;;20.70;99.90;;;;;;5047774;28;20041;-70
2023/07/29 10:36:23;;;;;;;2.35;1.08;;;20.70;99.90;;;;;;5038232;28;20483;-71
2023/07/29 10:38:49;;;;;;;3.88;1.00;;;20.70;99.90;;;;;;5033487;28;20045;-71
2023/07/29 10:41:15;;;;;;;2.72;0.90;;;20.70;99.90;;;;;;5035416;28;20044;-71
2023/07/29 10:43:40;;;;;;;3.72;1.05;;;20.70;99.90;;;;;;5040311;28;20037;-71
2023/07/29 10:46:19;;;;;;;2.47;1.27;;;20.60;99.90;;;;;;5040394;28;20279;-70
2023/07/29 10:48:56;;;;;;;3.25;1.38;;;20.60;99.90;;;;;;5038775;28;20129;-71
2023/07/29 10:51:29;;;;;;;3.53;1.42;;;20.60;99.90;;;;;;5055848;28;20102;-71
2023/07/29 10:54:00;;;;;;;2.22;1.20;;;20.50;99.90;;;;;;5045300;28;20053;-71
2023/07/29 10:56:33;;;;;;;1.48;0.95;;;20.50;99.90;;;;;;5040768;28;20131;-70
2023/07/29 10:59:22;;;;;;;3.47;1.23;;;20.40;99.90;;;;;;5074966;28;20040;-70
2023/07/29 11:01:57;;;;;;;2.03;1.25;;;20.40;99.90;;;;;;5041357;28;20505;-70
2023/07/29 11:04:24;;;;;;;1.92;1.00;;;20.40;99.90;;;;;;5035779;28;20590;-70
2023/07/29 11:07:05;;;;;;;5.45;1.20;;;20.40;99.90;;;;;;5041522;28;20045;-70
2023/07/29 11:09:49;;;;;;;2.17;1.08;;;20.40;99.90;;;;;;5020408;28;20106;-70
2023/07/29 11:12:34;;;;;;;3.95;1.08;;;20.30;99.90;;;;;;5038167;28;20520;-71
2023/07/29 11:15:24;;;;;;;4.10;1.15;;;20.20;99.90;;;;;;5071882;28;20033;-70
2023/07/29 11:17:51;;;;;;;2.30;1.02;;;19.90;99.90;;;;;;5030328;28;20353;-70
2023/07/29 11:20:19;;;;;;;1.83;0.82;;;19.50;99.90;;;;;;5044351;28;20051;-70
2023/07/29 11:22:45;;;;;;;2.97;0.85;;;19.20;99.90;;;;;;5066377;28;20036;-70
2023/07/29 11:25:13;;;;;;;2.40;1.05;;;19.00;99.90;;;;;;5038752;28;20048;-70
2023/07/29 11:27:39;;;;;;;2.22;1.00;;;18.80;99.90;;;;;;5040200;28;20080;-70
2023/07/29 11:30:07;;;;;;;2.33;1.00;;;18.70;99.90;;;;;;5040528;28;20032;-70
2023/07/29 11:32:35;;;;;;;4.75;1.48;;;18.70;99.90;;;;;;5038300;28;20033;-71
2023/07/29 11:35:15;;;;;;;3.55;1.48;;;18.60;99.90;;;;;;5054769;28;20041;-70
2023/07/29 11:37:42;;;;;;;3.15;1.52;;;18.60;99.90;;;;;;5032858;28;20106;-70
2023/07/29 11:40:10;;;;;;;4.95;1.60;;;18.60;99.90;;;;;;5038272;28;20112;-70
2023/07/29 11:42:36;;;;;;;3.40;2.35;;;18.80;99.90;;;;;;5041422;28;20063;-70
2023/07/29 11:45:03;;;;;;;4.97;2.10;;;18.90;99.90;;;;;;5041576;28;20056;-69
2023/07/29 11:47:29;;;;;;;3.55;2.13;;;19.10;99.90;;;;;;5037632;28;20051;-69
2023/07/29 11:49:58;;;;;;;4.13;2.25;;;19.10;99.90;;;;;;5044360;28;20051;-70
2023/07/29 11:52:24;;;;;;;5.03;2.15;;;19.30;99.90;;;;;;5037777;28;20037;-70
2023/07/29 11:54:49;;;;;;;4.57;1.80;;;19.40;99.90;;;;;;5038548;28;20036;-70
2023/07/29 11:57:18;;;;;;;4.93;1.95;;;19.50;99.90;;;;;;5039794;28;20479;-70
2023/07/29 11:59:45;;;;;;;3.28;1.83;;;19.60;99.90;;;;;;5039851;28;20542;-70
2023/07/29 12:02:13;;;;;;;4.53;1.88;;;19.60;99.90;;;;;;5038628;28;20075;-70
2023/07/29 12:04:40;;;;;;;6.43;1.95;;;19.80;99.90;;;;;;5041826;28;20652;-70
2023/07/29 12:07:06;;;;;;;3.38;1.55;;;19.80;99.90;;;;;;5038110;28;20314;-71
2023/07/29 12:09:33;;;;;;;3.47;1.42;;;19.90;99.90;;;;;;5037444;28;20049;-71
2023/07/29 12:11:59;;;;;;;4.70;1.55;;;20.00;99.90;;;;;;5038065;28;20686;-71
2023/07/29 12:14:29;;;;;;;5.43;1.30;;;20.00;99.90;;;;;;5038415;28;20175;-71
2023/07/29 12:16:54;;;;;;;3.65;1.60;;;20.00;99.90;;;;;;5039171;28;20045;-71
2023/07/29 12:19:21;;;;;;;3.15;1.25;;;20.00;99.90;;;;;;5038131;28;20402;-70
2023/07/29 12:21:48;;;;;;;4.45;1.17;;;20.10;99.90;;;;;;5032849;28;20033;-71
2023/07/29 12:24:14;;;;;;;2.50;1.05;;;20.10;99.90;;;;;;5063271;28;20033;-71
2023/07/29 12:26:41;;;;;;;5.15;1.60;;;20.10;99.90;;;;;;5064214;28;20594;-70
2023/07/29 12:29:14;;;;;;;2.38;1.00;;;20.20;99.90;;;;;;5037937;28;20040;-70
2023/07/29 12:31:40;;;;;;;2.35;1.00;;;20.30;99.90;;;;;;5036187;28;20031;-70
2023/07/29 12:34:05;;;;;;;3.28;1.30;;;20.30;99.90;;;;;;5037671;28;20120;-70
2023/07/29 12:37:02;;;;;;;4.80;1.60;;;20.30;99.90;;;;;;5039496;28;20171;-70
2023/07/29 12:39:30;;;;;;;2.67;1.00;;;20.30;99.90;;;;;;5033474;28;20044;-70
2023/07/29 12:41:58;;;;;;;3.90;1.30;;;20.30;99.90;;;;;;5036464;28;20041;-70
2023/07/29 12:44:24;;;;;;;3.22;1.23;;;20.30;99.90;;;;;;5031725;28;20122;-71
2023/07/29 12:46:50;;;;;;;2.78;1.20;;;20.30;99.90;;;;;;5037731;28;20076;-71